sensor_id;sensor_type;location;lat;lon;timestamp;P1;durP1;ratioP1;P2;durP2;ratioP2
38358;SDS011;42072;48.044;14.416;2023-04-09T00:01:06;19.67;;;12.30;;
38358;SDS011;42072;48.044;14.416;2023-04-09T00:03:35;19.02;;;12.50;;
38358;SDS011;42072;48.044;14.416;2023-04-09T00:06:03;18.10;;;11.70;;
38358;SDS011;42072;48.044;14.416;2023-04-09T00:08:31;19.15;;;12.05;;
38358;SDS011;42072;48.044;14.416;2023-04-09T00:10:58;18.38;;;11.63;;
38358;SDS011;42072;48.044;14.416;2023-04-09T00:13:25;18.58;;;11.90;;
38358;SDS011;42072;48.044;14.416;2023-04-09T00:16:05;20.23;;;12.88;;
38358;SDS011;42072;48.044;14.416;2023-04-09T00:18:33;19.42;;;12.23;;
38358;SDS011;42072;48.044;14.416;2023-04-09T00:21:00;18.48;;;11.85;;
38358;SDS011;42072;48.044;14.416;2023-04-09T00:23:27;18.58;;;11.90;;
38358;SDS011;42072;48.044;14.416;2023-04-09T00:25:54;22.27;;;12.75;;
38358;SDS011;42072;48.044;14.416;2023-04-09T00:28:21;20.20;;;12.35;;
38358;SDS011;42072;48.044;14.416;2023-04-09T00:30:48;20.67;;;13.23;;
38358;SDS011;42072;48.044;14.416;2023-04-09T00:33:16;24.13;;;13.20;;
38358;SDS011;42072;48.044;14.416;2023-04-09T00:35:43;19.15;;;12.60;;
38358;SDS011;42072;48.044;14.416;2023-04-09T00:38:10;22.17;;;13.20;;
38358;SDS011;42072;48.044;14.416;2023-04-09T00:40:38;23.13;;;13.55;;
38358;SDS011;42072;48.044;14.416;2023-04-09T00:43:06;21.13;;;13.65;;
38358;SDS011;42072;48.044;14.416;2023-04-09T00:45:33;24.75;;;14.35;;
38358;SDS011;42072;48.044;14.416;2023-04-09T00:48:01;20.92;;;13.38;;
38358;SDS011;42072;48.044;14.416;2023-04-09T00:50:29;21.05;;;13.18;;
38358;SDS011;42072;48.044;14.416;2023-04-09T00:52:56;23.65;;;13.93;;
38358;SDS011;42072;48.044;14.416;2023-04-09T00:55:23;20.77;;;13.48;;
38358;SDS011;42072;48.044;14.416;2023-04-09T00:57:51;20.92;;;13.60;;
38358;SDS011;42072;48.044;14.416;2023-04-09T01:00:18;21.67;;;13.57;;
38358;SDS011;42072;48.044;14.416;2023-04-09T01:02:45;21.83;;;13.88;;
38358;SDS011;42072;48.044;14.416;2023-04-09T01:05:14;24.42;;;13.93;;
38358;SDS011;42072;48.044;14.416;2023-04-09T01:10:38;19.90;;;13.38;;
38358;SDS011;42072;48.044;14.416;2023-04-09T01:13:29;22.33;;;13.60;;
38358;SDS011;42072;48.044;14.416;2023-04-09T01:16:05;23.13;;;13.98;;
38358;SDS011;42072;48.044;14.416;2023-04-09T01:18:43;20.85;;;13.43;;
38358;SDS011;42072;48.044;14.416;2023-04-09T01:21:22;22.55;;;13.57;;
38358;SDS011;42072;48.044;14.416;2023-04-09T01:24:18;18.70;;;13.25;;
38358;SDS011;42072;48.044;14.416;2023-04-09T01:27:04;25.55;;;14.25;;
38358;SDS011;42072;48.044;14.416;2023-04-09T01:29:43;24.05;;;13.95;;
38358;SDS011;42072;48.044;14.416;2023-04-09T01:32:12;22.20;;;13.88;;
38358;SDS011;42072;48.044;14.416;2023-04-09T01:34:43;24.20;;;14.25;;
38358;SDS011;42072;48.044;14.416;2023-04-09T01:37:14;21.73;;;13.68;;
38358;SDS011;42072;48.044;14.416;2023-04-09T01:39:42;22.05;;;13.40;;
38358;SDS011;42072;48.044;14.416;2023-04-09T01:42:10;23.20;;;14.40;;
38358;SDS011;42072;48.044;14.416;2023-04-09T01:44:41;21.45;;;13.68;;
38358;SDS011;42072;48.044;14.416;2023-04-09T01:47:09;25.67;;;14.60;;
38358;SDS011;42072;48.044;14.416;2023-04-09T01:49:38;22.25;;;14.13;;
38358;SDS011;42072;48.044;14.416;2023-04-09T01:52:07;24.50;;;13.93;;
38358;SDS011;42072;48.044;14.416;2023-04-09T01:54:35;20.77;;;12.75;;
38358;SDS011;42072;48.044;14.416;2023-04-09T01:57:03;23.48;;;14.70;;
38358;SDS011;42072;48.044;14.416;2023-04-09T01:59:31;20.65;;;13.10;;
38358;SDS011;42072;48.044;14.416;2023-04-09T02:02:05;21.75;;;13.48;;
38358;SDS011;42072;48.044;14.416;2023-04-09T02:04:39;22.42;;;13.93;;
38358;SDS011;42072;48.044;14.416;2023-04-09T02:10:05;20.50;;;12.95;;
38358;SDS011;42072;48.044;14.416;2023-04-09T02:12:36;18.73;;;12.88;;
38358;SDS011;42072;48.044;14.416;2023-04-09T02:15:06;21.38;;;13.05;;
38358;SDS011;42072;48.044;14.416;2023-04-09T02:17:33;20.05;;;13.05;;
38358;SDS011;42072;48.044;14.416;2023-04-09T02:20:01;19.98;;;13.02;;
38358;SDS011;42072;48.044;14.416;2023-04-09T02:22:28;22.88;;;13.68;;
38358;SDS011;42072;48.044;14.416;2023-04-09T02:24:55;24.67;;;13.45;;
38358;SDS011;42072;48.044;14.416;2023-04-09T02:27:22;22.17;;;13.57;;
38358;SDS011;42072;48.044;14.416;2023-04-09T02:29:50;20.65;;;13.38;;
38358;SDS011;42072;48.044;14.416;2023-04-09T02:32:17;20.55;;;13.57;;
38358;SDS011;42072;48.044;14.416;2023-04-09T02:34:44;18.40;;;12.57;;
38358;SDS011;42072;48.044;14.416;2023-04-09T02:37:11;19.80;;;12.82;;
38358;SDS011;42072;48.044;14.416;2023-04-09T02:39:38;21.88;;;13.27;;
38358;SDS011;42072;48.044;14.416;2023-04-09T02:42:05;19.48;;;12.65;;
38358;SDS011;42072;48.044;14.416;2023-04-09T02:44:33;17.67;;;11.93;;
38358;SDS011;42072;48.044;14.416;2023-04-09T02:47:01;19.25;;;12.20;;
38358;SDS011;42072;48.044;14.416;2023-04-09T02:49:28;18.48;;;12.48;;
38358;SDS011;42072;48.044;14.416;2023-04-09T02:51:56;20.23;;;13.02;;
38358;SDS011;42072;48.044;14.416;2023-04-09T02:54:23;21.85;;;12.40;;
38358;SDS011;42072;48.044;14.416;2023-04-09T02:56:50;21.05;;;13.27;;
38358;SDS011;42072;48.044;14.416;2023-04-09T02:59:17;18.20;;;12.98;;
38358;SDS011;42072;48.044;14.416;2023-04-09T03:01:44;18.80;;;12.52;;
38358;SDS011;42072;48.044;14.416;2023-04-09T03:04:12;18.30;;;11.75;;
38358;SDS011;42072;48.044;14.416;2023-04-09T03:06:39;21.23;;;12.63;;
38358;SDS011;42072;48.044;14.416;2023-04-09T03:09:06;20.95;;;13.00;;
38358;SDS011;42072;48.044;14.416;2023-04-09T03:11:33;20.98;;;13.25;;
38358;SDS011;42072;48.044;14.416;2023-04-09T03:14:00;21.45;;;13.30;;
38358;SDS011;42072;48.044;14.416;2023-04-09T03:16:27;20.92;;;13.77;;
38358;SDS011;42072;48.044;14.416;2023-04-09T03:18:54;21.85;;;13.40;;
38358;SDS011;42072;48.044;14.416;2023-04-09T03:21:22;20.38;;;13.77;;
38358;SDS011;42072;48.044;14.416;2023-04-09T03:23:49;22.05;;;12.93;;
38358;SDS011;42072;48.044;14.416;2023-04-09T03:26:16;17.67;;;12.02;;
38358;SDS011;42072;48.044;14.416;2023-04-09T03:28:43;20.70;;;13.63;;
38358;SDS011;42072;48.044;14.416;2023-04-09T03:31:10;22.38;;;13.65;;
38358;SDS011;42072;48.044;14.416;2023-04-09T03:33:39;20.25;;;13.00;;
38358;SDS011;42072;48.044;14.416;2023-04-09T03:36:07;23.05;;;13.95;;
38358;SDS011;42072;48.044;14.416;2023-04-09T03:38:34;21.17;;;13.95;;
38358;SDS011;42072;48.044;14.416;2023-04-09T03:41:01;21.38;;;12.88;;
38358;SDS011;42072;48.044;14.416;2023-04-09T03:43:29;21.17;;;13.52;;
38358;SDS011;42072;48.044;14.416;2023-04-09T03:45:56;22.02;;;13.73;;
38358;SDS011;42072;48.044;14.416;2023-04-09T03:48:23;22.33;;;13.57;;
38358;SDS011;42072;48.044;14.416;2023-04-09T03:50:50;23.50;;;13.90;;
38358;SDS011;42072;48.044;14.416;2023-04-09T03:53:19;22.67;;;14.23;;
38358;SDS011;42072;48.044;14.416;2023-04-09T03:55:46;23.05;;;14.30;;
38358;SDS011;42072;48.044;14.416;2023-04-09T03:58:13;22.70;;;14.20;;
38358;SDS011;42072;48.044;14.416;2023-04-09T04:00:40;21.30;;;13.70;;
38358;SDS011;42072;48.044;14.416;2023-04-09T04:03:10;22.50;;;13.45;;
38358;SDS011;42072;48.044;14.416;2023-04-09T04:05:37;24.13;;;13.75;;
38358;SDS011;42072;48.044;14.416;2023-04-09T04:08:05;25.52;;;14.70;;
38358;SDS011;42072;48.044;14.416;2023-04-09T04:10:35;26.13;;;14.55;;
38358;SDS011;42072;48.044;14.416;2023-04-09T04:13:02;26.65;;;14.88;;
38358;SDS011;42072;48.044;14.416;2023-04-09T04:15:29;24.75;;;14.70;;
38358;SDS011;42072;48.044;14.416;2023-04-09T04:17:56;26.52;;;15.23;;
38358;SDS011;42072;48.044;14.416;2023-04-09T04:20:24;24.88;;;14.73;;
38358;SDS011;42072;48.044;14.416;2023-04-09T04:22:51;25.98;;;15.25;;
38358;SDS011;42072;48.044;14.416;2023-04-09T04:25:18;25.83;;;15.55;;
38358;SDS011;42072;48.044;14.416;2023-04-09T04:27:45;25.27;;;14.80;;
38358;SDS011;42072;48.044;14.416;2023-04-09T04:30:13;24.92;;;14.98;;
38358;SDS011;42072;48.044;14.416;2023-04-09T04:32:40;24.95;;;15.20;;
38358;SDS011;42072;48.044;14.416;2023-04-09T04:35:08;26.65;;;15.88;;
38358;SDS011;42072;48.044;14.416;2023-04-09T04:37:35;23.45;;;14.50;;
38358;SDS011;42072;48.044;14.416;2023-04-09T04:40:02;23.30;;;14.32;;
38358;SDS011;42072;48.044;14.416;2023-04-09T04:42:31;24.27;;;14.88;;
38358;SDS011;42072;48.044;14.416;2023-04-09T04:44:58;26.40;;;15.55;;
38358;SDS011;42072;48.044;14.416;2023-04-09T04:47:25;23.42;;;14.35;;
38358;SDS011;42072;48.044;14.416;2023-04-09T04:49:53;23.15;;;14.65;;
38358;SDS011;42072;48.044;14.416;2023-04-09T04:52:20;24.98;;;14.68;;
38358;SDS011;42072;48.044;14.416;2023-04-09T04:54:47;22.77;;;14.05;;
38358;SDS011;42072;48.044;14.416;2023-04-09T04:57:14;20.67;;;13.13;;
38358;SDS011;42072;48.044;14.416;2023-04-09T04:59:42;24.17;;;13.70;;
38358;SDS011;42072;48.044;14.416;2023-04-09T05:02:09;25.00;;;14.35;;
38358;SDS011;42072;48.044;14.416;2023-04-09T05:04:36;22.52;;;14.25;;
38358;SDS011;42072;48.044;14.416;2023-04-09T05:07:03;22.75;;;13.43;;
38358;SDS011;42072;48.044;14.416;2023-04-09T05:09:30;27.90;;;15.55;;
38358;SDS011;42072;48.044;14.416;2023-04-09T05:11:57;24.30;;;14.25;;
38358;SDS011;42072;48.044;14.416;2023-04-09T05:14:25;26.23;;;15.57;;
38358;SDS011;42072;48.044;14.416;2023-04-09T05:16:52;28.42;;;14.13;;
38358;SDS011;42072;48.044;14.416;2023-04-09T05:19:19;23.17;;;14.35;;
38358;SDS011;42072;48.044;14.416;2023-04-09T05:21:46;23.60;;;14.60;;
38358;SDS011;42072;48.044;14.416;2023-04-09T05:24:13;23.73;;;14.77;;
38358;SDS011;42072;48.044;14.416;2023-04-09T05:26:40;25.45;;;15.38;;
38358;SDS011;42072;48.044;14.416;2023-04-09T05:29:07;23.88;;;13.90;;
38358;SDS011;42072;48.044;14.416;2023-04-09T05:31:34;23.05;;;13.82;;
38358;SDS011;42072;48.044;14.416;2023-04-09T05:34:01;23.95;;;14.00;;
38358;SDS011;42072;48.044;14.416;2023-04-09T05:36:29;23.05;;;13.80;;
38358;SDS011;42072;48.044;14.416;2023-04-09T05:38:58;24.95;;;15.13;;
38358;SDS011;42072;48.044;14.416;2023-04-09T05:41:25;25.30;;;15.50;;
38358;SDS011;42072;48.044;14.416;2023-04-09T05:43:52;23.73;;;14.32;;
38358;SDS011;42072;48.044;14.416;2023-04-09T05:46:20;23.00;;;13.75;;
38358;SDS011;42072;48.044;14.416;2023-04-09T05:48:47;23.30;;;14.25;;
38358;SDS011;42072;48.044;14.416;2023-04-09T05:51:15;25.20;;;14.23;;
38358;SDS011;42072;48.044;14.416;2023-04-09T05:53:42;23.23;;;14.23;;
38358;SDS011;42072;48.044;14.416;2023-04-09T05:56:13;25.33;;;14.70;;
38358;SDS011;42072;48.044;14.416;2023-04-09T05:58:41;22.80;;;14.18;;
38358;SDS011;42072;48.044;14.416;2023-04-09T06:01:08;25.52;;;14.93;;
38358;SDS011;42072;48.044;14.416;2023-04-09T06:03:35;22.88;;;15.18;;
38358;SDS011;42072;48.044;14.416;2023-04-09T06:06:03;21.27;;;14.15;;
38358;SDS011;42072;48.044;14.416;2023-04-09T06:08:30;22.88;;;14.15;;
38358;SDS011;42072;48.044;14.416;2023-04-09T06:10:57;21.65;;;13.25;;
38358;SDS011;42072;48.044;14.416;2023-04-09T06:13:25;23.52;;;12.90;;
38358;SDS011;42072;48.044;14.416;2023-04-09T06:15:52;20.52;;;13.40;;
38358;SDS011;42072;48.044;14.416;2023-04-09T06:18:19;22.85;;;14.13;;
38358;SDS011;42072;48.044;14.416;2023-04-09T06:20:47;22.45;;;13.82;;
38358;SDS011;42072;48.044;14.416;2023-04-09T06:23:14;27.17;;;15.15;;
38358;SDS011;42072;48.044;14.416;2023-04-09T06:25:41;22.40;;;14.25;;
38358;SDS011;42072;48.044;14.416;2023-04-09T06:28:08;21.35;;;14.13;;
38358;SDS011;42072;48.044;14.416;2023-04-09T06:30:36;20.65;;;13.65;;
38358;SDS011;42072;48.044;14.416;2023-04-09T06:33:03;23.60;;;14.95;;
38358;SDS011;42072;48.044;14.416;2023-04-09T06:35:30;26.77;;;15.40;;
38358;SDS011;42072;48.044;14.416;2023-04-09T06:37:58;24.23;;;15.20;;
38358;SDS011;42072;48.044;14.416;2023-04-09T06:40:25;21.45;;;13.93;;
38358;SDS011;42072;48.044;14.416;2023-04-09T06:42:53;21.55;;;14.63;;
38358;SDS011;42072;48.044;14.416;2023-04-09T06:45:20;21.80;;;14.15;;
38358;SDS011;42072;48.044;14.416;2023-04-09T06:47:47;25.23;;;15.20;;
38358;SDS011;42072;48.044;14.416;2023-04-09T06:50:15;26.83;;;15.35;;
38358;SDS011;42072;48.044;14.416;2023-04-09T06:52:42;22.60;;;15.55;;
38358;SDS011;42072;48.044;14.416;2023-04-09T06:55:10;21.77;;;14.75;;
38358;SDS011;42072;48.044;14.416;2023-04-09T06:57:37;23.35;;;15.30;;
38358;SDS011;42072;48.044;14.416;2023-04-09T07:00:04;26.02;;;16.20;;
38358;SDS011;42072;48.044;14.416;2023-04-09T07:02:32;24.38;;;15.82;;
38358;SDS011;42072;48.044;14.416;2023-04-09T07:05:00;24.52;;;14.95;;
38358;SDS011;42072;48.044;14.416;2023-04-09T07:07:27;23.63;;;14.60;;
38358;SDS011;42072;48.044;14.416;2023-04-09T07:09:54;24.30;;;15.80;;
38358;SDS011;42072;48.044;14.416;2023-04-09T07:12:27;28.58;;;20.02;;
38358;SDS011;42072;48.044;14.416;2023-04-09T07:14:58;26.88;;;16.55;;
38358;SDS011;42072;48.044;14.416;2023-04-09T07:17:27;25.17;;;15.98;;
38358;SDS011;42072;48.044;14.416;2023-04-09T07:19:54;25.95;;;15.98;;
38358;SDS011;42072;48.044;14.416;2023-04-09T07:22:22;32.30;;;17.30;;
38358;SDS011;42072;48.044;14.416;2023-04-09T07:24:50;23.65;;;15.55;;
38358;SDS011;42072;48.044;14.416;2023-04-09T07:27:21;26.92;;;16.45;;
38358;SDS011;42072;48.044;14.416;2023-04-09T07:29:56;29.80;;;18.33;;
38358;SDS011;42072;48.044;14.416;2023-04-09T07:32:24;24.65;;;15.95;;
38358;SDS011;42072;48.044;14.416;2023-04-09T07:34:53;28.65;;;17.92;;
38358;SDS011;42072;48.044;14.416;2023-04-09T07:37:21;30.33;;;17.08;;
38358;SDS011;42072;48.044;14.416;2023-04-09T07:39:48;28.83;;;17.75;;
38358;SDS011;42072;48.044;14.416;2023-04-09T07:42:16;24.40;;;15.48;;
38358;SDS011;42072;48.044;14.416;2023-04-09T07:44:43;27.05;;;16.85;;
38358;SDS011;42072;48.044;14.416;2023-04-09T07:47:11;25.75;;;17.30;;
38358;SDS011;42072;48.044;14.416;2023-04-09T07:49:38;27.13;;;16.75;;
38358;SDS011;42072;48.044;14.416;2023-04-09T07:52:05;25.05;;;16.30;;
38358;SDS011;42072;48.044;14.416;2023-04-09T07:54:34;25.70;;;16.10;;
38358;SDS011;42072;48.044;14.416;2023-04-09T07:57:01;24.05;;;15.57;;
38358;SDS011;42072;48.044;14.416;2023-04-09T07:59:28;28.40;;;16.63;;
38358;SDS011;42072;48.044;14.416;2023-04-09T08:01:57;23.60;;;15.75;;
38358;SDS011;42072;48.044;14.416;2023-04-09T08:04:25;24.42;;;15.43;;
38358;SDS011;42072;48.044;14.416;2023-04-09T08:06:53;27.00;;;16.20;;
38358;SDS011;42072;48.044;14.416;2023-04-09T08:09:21;27.75;;;18.00;;
38358;SDS011;42072;48.044;14.416;2023-04-09T08:11:48;25.88;;;16.42;;
38358;SDS011;42072;48.044;14.416;2023-04-09T08:14:16;23.92;;;15.32;;
38358;SDS011;42072;48.044;14.416;2023-04-09T08:16:45;24.52;;;15.32;;
38358;SDS011;42072;48.044;14.416;2023-04-09T08:19:14;24.80;;;16.30;;
38358;SDS011;42072;48.044;14.416;2023-04-09T08:21:42;26.08;;;16.92;;
38358;SDS011;42072;48.044;14.416;2023-04-09T08:24:10;27.70;;;17.10;;
38358;SDS011;42072;48.044;14.416;2023-04-09T08:26:38;26.35;;;16.35;;
38358;SDS011;42072;48.044;14.416;2023-04-09T08:29:07;26.92;;;17.08;;
38358;SDS011;42072;48.044;14.416;2023-04-09T08:31:34;27.05;;;17.15;;
38358;SDS011;42072;48.044;14.416;2023-04-09T08:34:03;25.67;;;16.88;;
38358;SDS011;42072;48.044;14.416;2023-04-09T08:36:30;25.60;;;16.52;;
38358;SDS011;42072;48.044;14.416;2023-04-09T08:39:00;28.23;;;16.90;;
38358;SDS011;42072;48.044;14.416;2023-04-09T08:41:27;27.95;;;16.65;;
38358;SDS011;42072;48.044;14.416;2023-04-09T08:43:55;24.85;;;16.30;;
38358;SDS011;42072;48.044;14.416;2023-04-09T08:46:25;26.95;;;17.13;;
38358;SDS011;42072;48.044;14.416;2023-04-09T08:48:53;30.00;;;17.95;;
38358;SDS011;42072;48.044;14.416;2023-04-09T08:51:21;25.55;;;16.75;;
38358;SDS011;42072;48.044;14.416;2023-04-09T08:53:56;27.02;;;16.85;;
38358;SDS011;42072;48.044;14.416;2023-04-09T08:56:30;24.80;;;16.65;;
38358;SDS011;42072;48.044;14.416;2023-04-09T08:58:57;24.27;;;16.08;;
38358;SDS011;42072;48.044;14.416;2023-04-09T09:01:26;24.63;;;15.40;;
38358;SDS011;42072;48.044;14.416;2023-04-09T09:03:56;21.98;;;14.95;;
38358;SDS011;42072;48.044;14.416;2023-04-09T09:06:31;22.65;;;14.82;;
38358;SDS011;42072;48.044;14.416;2023-04-09T09:11:39;23.85;;;15.65;;
38358;SDS011;42072;48.044;14.416;2023-04-09T09:14:15;22.95;;;15.27;;
38358;SDS011;42072;48.044;14.416;2023-04-09T09:17:01;24.13;;;15.82;;
38358;SDS011;42072;48.044;14.416;2023-04-09T09:19:31;24.55;;;16.20;;
38358;SDS011;42072;48.044;14.416;2023-04-09T09:22:00;25.70;;;17.20;;
38358;SDS011;42072;48.044;14.416;2023-04-09T09:24:32;24.70;;;16.25;;
38358;SDS011;42072;48.044;14.416;2023-04-09T09:27:00;23.35;;;15.55;;
38358;SDS011;42072;48.044;14.416;2023-04-09T09:29:28;27.63;;;17.25;;
38358;SDS011;42072;48.044;14.416;2023-04-09T09:31:55;24.17;;;15.32;;
38358;SDS011;42072;48.044;14.416;2023-04-09T09:34:23;23.67;;;16.13;;
38358;SDS011;42072;48.044;14.416;2023-04-09T09:36:51;23.38;;;15.07;;
38358;SDS011;42072;48.044;14.416;2023-04-09T09:39:18;23.50;;;15.57;;
38358;SDS011;42072;48.044;14.416;2023-04-09T09:41:47;25.38;;;16.33;;
38358;SDS011;42072;48.044;14.416;2023-04-09T09:44:32;23.95;;;15.90;;
38358;SDS011;42072;48.044;14.416;2023-04-09T09:46:59;25.73;;;17.33;;
38358;SDS011;42072;48.044;14.416;2023-04-09T09:49:29;22.33;;;15.32;;
38358;SDS011;42072;48.044;14.416;2023-04-09T09:51:56;22.50;;;15.90;;
38358;SDS011;42072;48.044;14.416;2023-04-09T09:54:30;21.55;;;15.07;;
38358;SDS011;42072;48.044;14.416;2023-04-09T09:57:10;20.75;;;14.55;;
38358;SDS011;42072;48.044;14.416;2023-04-09T09:59:42;21.92;;;15.20;;
38358;SDS011;42072;48.044;14.416;2023-04-09T10:02:18;21.67;;;14.82;;
38358;SDS011;42072;48.044;14.416;2023-04-09T10:04:46;22.75;;;14.48;;
38358;SDS011;42072;48.044;14.416;2023-04-09T10:07:16;22.83;;;15.98;;
38358;SDS011;42072;48.044;14.416;2023-04-09T10:09:48;19.23;;;13.75;;
38358;SDS011;42072;48.044;14.416;2023-04-09T10:12:17;20.55;;;13.70;;
38358;SDS011;42072;48.044;14.416;2023-04-09T10:14:48;19.83;;;13.90;;
38358;SDS011;42072;48.044;14.416;2023-04-09T10:17:18;19.17;;;14.02;;
38358;SDS011;42072;48.044;14.416;2023-04-09T10:23:01;21.58;;;14.57;;
38358;SDS011;42072;48.044;14.416;2023-04-09T10:25:31;19.52;;;14.10;;
38358;SDS011;42072;48.044;14.416;2023-04-09T10:28:00;19.85;;;14.10;;
38358;SDS011;42072;48.044;14.416;2023-04-09T10:30:31;20.92;;;14.50;;
38358;SDS011;42072;48.044;14.416;2023-04-09T10:33:12;20.08;;;13.32;;
38358;SDS011;42072;48.044;14.416;2023-04-09T10:35:42;21.40;;;14.07;;
38358;SDS011;42072;48.044;14.416;2023-04-09T10:38:14;18.30;;;13.07;;
38358;SDS011;42072;48.044;14.416;2023-04-09T10:40:46;19.35;;;13.50;;
38358;SDS011;42072;48.044;14.416;2023-04-09T10:43:17;19.33;;;13.10;;
38358;SDS011;42072;48.044;14.416;2023-04-09T10:45:48;23.20;;;14.77;;
38358;SDS011;42072;48.044;14.416;2023-04-09T10:48:19;23.08;;;14.57;;
38358;SDS011;42072;48.044;14.416;2023-04-09T10:50:49;22.65;;;15.18;;
38358;SDS011;42072;48.044;14.416;2023-04-09T10:53:20;26.55;;;18.42;;
38358;SDS011;42072;48.044;14.416;2023-04-09T10:55:49;19.33;;;13.75;;
38358;SDS011;42072;48.044;14.416;2023-04-09T10:58:18;18.98;;;13.30;;
38358;SDS011;42072;48.044;14.416;2023-04-09T11:00:46;21.67;;;13.68;;
38358;SDS011;42072;48.044;14.416;2023-04-09T11:03:19;20.73;;;14.43;;
38358;SDS011;42072;48.044;14.416;2023-04-09T11:06:02;19.80;;;14.57;;
38358;SDS011;42072;48.044;14.416;2023-04-09T11:08:34;19.65;;;13.80;;
38358;SDS011;42072;48.044;14.416;2023-04-09T11:11:03;21.67;;;15.27;;
38358;SDS011;42072;48.044;14.416;2023-04-09T11:13:31;26.10;;;16.88;;
38358;SDS011;42072;48.044;14.416;2023-04-09T11:15:59;23.98;;;16.77;;
38358;SDS011;42072;48.044;14.416;2023-04-09T11:18:33;19.98;;;14.70;;
38358;SDS011;42072;48.044;14.416;2023-04-09T11:21:02;23.67;;;15.63;;
38358;SDS011;42072;48.044;14.416;2023-04-09T11:23:30;22.02;;;14.82;;
38358;SDS011;42072;48.044;14.416;2023-04-09T11:25:58;20.45;;;14.75;;
38358;SDS011;42072;48.044;14.416;2023-04-09T11:28:27;20.58;;;14.65;;
38358;SDS011;42072;48.044;14.416;2023-04-09T11:30:54;19.05;;;13.73;;
38358;SDS011;42072;48.044;14.416;2023-04-09T11:33:21;19.83;;;14.35;;
38358;SDS011;42072;48.044;14.416;2023-04-09T11:35:49;21.13;;;15.30;;
38358;SDS011;42072;48.044;14.416;2023-04-09T11:38:17;26.60;;;17.67;;
38358;SDS011;42072;48.044;14.416;2023-04-09T11:40:44;24.40;;;15.85;;
38358;SDS011;42072;48.044;14.416;2023-04-09T11:43:15;19.35;;;13.63;;
38358;SDS011;42072;48.044;14.416;2023-04-09T11:45:43;18.52;;;14.23;;
38358;SDS011;42072;48.044;14.416;2023-04-09T11:48:14;19.55;;;14.00;;
38358;SDS011;42072;48.044;14.416;2023-04-09T11:50:44;19.42;;;14.50;;
38358;SDS011;42072;48.044;14.416;2023-04-09T11:53:15;19.23;;;14.15;;
38358;SDS011;42072;48.044;14.416;2023-04-09T11:55:45;19.27;;;13.48;;
38358;SDS011;42072;48.044;14.416;2023-04-09T11:58:15;17.90;;;12.95;;
38358;SDS011;42072;48.044;14.416;2023-04-09T12:00:42;20.80;;;13.00;;
38358;SDS011;42072;48.044;14.416;2023-04-09T12:03:11;18.45;;;12.90;;
38358;SDS011;42072;48.044;14.416;2023-04-09T12:05:39;16.98;;;12.65;;
38358;SDS011;42072;48.044;14.416;2023-04-09T12:08:16;17.88;;;13.02;;
38358;SDS011;42072;48.044;14.416;2023-04-09T12:10:49;18.48;;;13.07;;
38358;SDS011;42072;48.044;14.416;2023-04-09T12:13:19;17.40;;;12.88;;
38358;SDS011;42072;48.044;14.416;2023-04-09T12:15:47;17.85;;;12.85;;
38358;SDS011;42072;48.044;14.416;2023-04-09T12:18:15;18.10;;;13.32;;
38358;SDS011;42072;48.044;14.416;2023-04-09T12:20:43;17.27;;;12.55;;
38358;SDS011;42072;48.044;14.416;2023-04-09T12:23:13;16.92;;;12.98;;
38358;SDS011;42072;48.044;14.416;2023-04-09T12:25:42;18.77;;;13.43;;
38358;SDS011;42072;48.044;14.416;2023-04-09T12:28:11;17.35;;;12.52;;
38358;SDS011;42072;48.044;14.416;2023-04-09T12:30:41;17.10;;;12.45;;
38358;SDS011;42072;48.044;14.416;2023-04-09T12:33:08;17.83;;;13.30;;
38358;SDS011;42072;48.044;14.416;2023-04-09T12:35:37;19.15;;;13.50;;
38358;SDS011;42072;48.044;14.416;2023-04-09T12:38:04;18.08;;;13.00;;
38358;SDS011;42072;48.044;14.416;2023-04-09T12:40:31;20.05;;;13.80;;
38358;SDS011;42072;48.044;14.416;2023-04-09T12:42:59;20.58;;;13.82;;
38358;SDS011;42072;48.044;14.416;2023-04-09T12:45:26;19.58;;;13.77;;
38358;SDS011;42072;48.044;14.416;2023-04-09T12:47:54;17.90;;;13.15;;
38358;SDS011;42072;48.044;14.416;2023-04-09T12:50:22;19.58;;;13.45;;
38358;SDS011;42072;48.044;14.416;2023-04-09T12:52:49;18.60;;;13.32;;
38358;SDS011;42072;48.044;14.416;2023-04-09T12:55:16;20.10;;;13.80;;
38358;SDS011;42072;48.044;14.416;2023-04-09T12:57:44;18.63;;;12.68;;
38358;SDS011;42072;48.044;14.416;2023-04-09T13:00:14;18.58;;;12.65;;
38358;SDS011;42072;48.044;14.416;2023-04-09T13:02:41;18.02;;;13.13;;
38358;SDS011;42072;48.044;14.416;2023-04-09T13:05:09;17.65;;;11.98;;
38358;SDS011;42072;48.044;14.416;2023-04-09T13:07:36;16.10;;;12.35;;
38358;SDS011;42072;48.044;14.416;2023-04-09T13:10:06;16.08;;;12.15;;
38358;SDS011;42072;48.044;14.416;2023-04-09T13:12:33;22.00;;;15.07;;
38358;SDS011;42072;48.044;14.416;2023-04-09T13:15:00;17.10;;;12.80;;
38358;SDS011;42072;48.044;14.416;2023-04-09T13:17:27;16.83;;;13.02;;
38358;SDS011;42072;48.044;14.416;2023-04-09T13:19:55;19.42;;;13.70;;
38358;SDS011;42072;48.044;14.416;2023-04-09T13:22:22;17.58;;;13.07;;
38358;SDS011;42072;48.044;14.416;2023-04-09T13:24:49;19.40;;;13.57;;
38358;SDS011;42072;48.044;14.416;2023-04-09T13:27:16;17.30;;;12.30;;
38358;SDS011;42072;48.044;14.416;2023-04-09T13:29:43;18.33;;;12.90;;
38358;SDS011;42072;48.044;14.416;2023-04-09T13:32:11;17.15;;;12.85;;
38358;SDS011;42072;48.044;14.416;2023-04-09T13:34:38;16.77;;;12.25;;
38358;SDS011;42072;48.044;14.416;2023-04-09T13:37:05;17.42;;;12.85;;
38358;SDS011;42072;48.044;14.416;2023-04-09T13:39:33;18.55;;;12.65;;
38358;SDS011;42072;48.044;14.416;2023-04-09T13:42:00;18.50;;;13.00;;
38358;SDS011;42072;48.044;14.416;2023-04-09T13:44:38;18.08;;;12.60;;
38358;SDS011;42072;48.044;14.416;2023-04-09T13:47:08;18.13;;;12.77;;
38358;SDS011;42072;48.044;14.416;2023-04-09T13:49:38;17.73;;;12.05;;
38358;SDS011;42072;48.044;14.416;2023-04-09T13:52:06;19.33;;;12.57;;
38358;SDS011;42072;48.044;14.416;2023-04-09T13:54:33;18.13;;;13.38;;
38358;SDS011;42072;48.044;14.416;2023-04-09T13:57:01;18.70;;;13.25;;
38358;SDS011;42072;48.044;14.416;2023-04-09T13:59:29;23.33;;;14.57;;
38358;SDS011;42072;48.044;14.416;2023-04-09T14:01:57;32.85;;;20.50;;
38358;SDS011;42072;48.044;14.416;2023-04-09T14:04:24;57.42;;;34.08;;
38358;SDS011;42072;48.044;14.416;2023-04-09T14:06:51;19.75;;;14.45;;
38358;SDS011;42072;48.044;14.416;2023-04-09T14:09:18;22.77;;;15.07;;
38358;SDS011;42072;48.044;14.416;2023-04-09T14:11:46;24.58;;;15.63;;
38358;SDS011;42072;48.044;14.416;2023-04-09T14:14:13;21.40;;;13.32;;
38358;SDS011;42072;48.044;14.416;2023-04-09T14:16:40;18.83;;;13.25;;
38358;SDS011;42072;48.044;14.416;2023-04-09T14:19:07;21.77;;;14.93;;
38358;SDS011;42072;48.044;14.416;2023-04-09T14:21:35;22.77;;;14.18;;
38358;SDS011;42072;48.044;14.416;2023-04-09T14:24:02;21.10;;;15.23;;
38358;SDS011;42072;48.044;14.416;2023-04-09T14:26:29;24.42;;;16.25;;
38358;SDS011;42072;48.044;14.416;2023-04-09T14:28:56;23.70;;;16.70;;